Terminal Aerodrome Forecast
Issued by NWS

Home | Current Version | Previous Version | Text Only | Print | Product List | Glossary On
Versions: 1 2 3 4 5 6 7 8 9 10 11 12 13 14 15 16 17 18 19 20 21 22 23 24 25
000
FTUS46 KPQR 240042 AAA
TAFONP
TAF AMD
KONP 240042Z 2401/2424 20022G35KT 2SM RADZ BR OVC005
     FM241200 22018G29KT 4SM -RADZ BR BKN015 OVC025
     FM241500 22013KT 6SM -SHRA SCT015 BKN025 OVC045
     FM241800 23012KT P6SM -SHRA SCT025 BKN035 BKN050=

USA.gov is the U.S. government's official web portal to all federal, state and local government web resources and services.